Time;durP1;ratioP1;P1;durP2;ratioP2;P2;SDS_P1;SDS_P2;PMS_P1;PMS_P2;Temp;Humidity;BMP_temperature;BMP_pressure;BME280_temperature;BME280_humidity;BME280_pressure;Samples;Min_cycle;Max_cycle;Signal;HPM_P1;HPM_P2
2022/11/17 00:00:46;;;;;;;22.87;7.90;;;;;;;;;;5046471;28;20212;-78
2022/11/17 00:03:50;;;;;;;17.37;8.97;;;;;;;;;;5046381;28;20192;-78
2022/11/17 00:06:56;;;;;;;28.33;9.27;;;;;;;;;;5046817;28;20212;-78
2022/11/17 00:10:00;;;;;;;14.53;8.07;;;;;;;;;;5059470;28;20181;-78
2022/11/17 00:16:27;;;;;;;20.73;8.60;;;;;;;;;;5060107;28;20528;-78
2022/11/17 00:22:53;;;;;;;9.20;7.93;;;;;;;;;;5059569;28;20300;-78
2022/11/17 00:25:58;;;;;;;12.27;8.47;;;;;;;;;;5048047;28;20184;-78
2022/11/17 00:29:04;;;;;;;12.53;8.03;;;;;;;;;;5039042;28;20172;-78
2022/11/17 00:35:36;;;;;;;11.67;7.63;;;;;;;;;;5049222;28;20184;-78
2022/11/17 00:38:40;;;;;;;17.67;7.33;;;;;;;;;;5061743;28;20176;-78
2022/11/17 00:41:44;;;;;;;15.47;8.60;;;;;;;;;;5037511;28;20232;-78
2022/11/17 00:44:49;;;;;;;21.57;7.97;;;;;;;;;;5048943;28;20176;-78
2022/11/17 00:47:53;;;;;;;10.50;7.30;;;;;;;;;;5048729;28;20176;-78
2022/11/17 00:51:02;;;;;;;20.47;7.80;;;;;;;;;;5048871;28;20219;-78
2022/11/17 00:54:10;;;;;;;10.70;7.60;;;;;;;;;;5037096;28;20188;-78
2022/11/17 00:57:14;;;;;;;20.67;8.03;;;;;;;;;;5026367;28;20199;-78
2022/11/17 01:00:20;;;;;;;9.67;7.30;;;;;;;;;;5049400;28;20650;-78
2022/11/17 01:03:24;;;;;;;14.93;7.63;;;;;;;;;;5037742;28;20212;-78
2022/11/17 01:06:30;;;;;;;9.40;8.00;;;;;;;;;;5047907;28;20203;-79
2022/11/17 01:09:34;;;;;;;12.00;8.07;;;;;;;;;;5047078;28;20180;-78
2022/11/17 01:12:38;;;;;;;14.13;9.00;;;;;;;;;;5046431;28;20667;-78
2022/11/17 01:15:43;;;;;;;13.70;8.70;;;;;;;;;;5035230;28;20184;-78
2022/11/17 01:18:48;;;;;;;8.63;7.73;;;;;;;;;;5033756;28;20169;-78
2022/11/17 01:21:53;;;;;;;10.73;8.87;;;;;;;;;;5047527;28;20695;-77
2022/11/17 01:24:57;;;;;;;11.43;7.80;;;;;;;;;;5047207;28;20180;-78
2022/11/17 01:28:01;;;;;;;13.93;9.13;;;;;;;;;;5024983;28;20184;-77
2022/11/17 01:31:17;;;;;;;9.83;7.83;;;;;;;;;;5034434;28;20212;-77
2022/11/17 01:34:21;;;;;;;11.43;8.97;;;;;;;;;;5058161;28;20192;-77
2022/11/17 01:37:26;;;;;;;11.07;8.73;;;;;;;;;;5058579;28;20184;-78
2022/11/17 01:40:30;;;;;;;9.53;8.17;;;;;;;;;;5059547;28;20180;-78
2022/11/17 01:43:37;;;;;;;16.60;9.13;;;;;;;;;;5036072;28;20208;-77
2022/11/17 01:46:41;;;;;;;12.53;9.17;;;;;;;;;;5059183;28;20181;-78
2022/11/17 01:49:47;;;;;;;10.47;9.23;;;;;;;;;;5046661;28;20196;-78
2022/11/17 01:52:56;;;;;;;9.53;8.53;;;;;;;;;;5045224;28;20181;-78
2022/11/17 01:56:09;;;;;;;11.37;9.43;;;;;;;;;;5045726;28;20184;-78
2022/11/17 01:59:28;;;;;;;10.60;8.73;;;;;;;;;;5032695;28;20200;-78
2022/11/17 02:02:33;;;;;;;11.10;9.77;;;;;;;;;;5057173;28;20231;-77
2022/11/17 02:05:59;;;;;;;11.10;8.97;;;;;;;;;;5033417;28;20211;-78
2022/11/17 02:09:03;;;;;;;11.83;9.17;;;;;;;;;;5064954;22;20235;-87
2022/11/17 02:12:10;;;;;;;11.20;9.13;;;;;;;;;;5062416;28;20642;-87
2022/11/17 02:15:15;;;;;;;10.67;8.80;;;;;;;;;;5039094;28;20176;-86
2022/11/17 02:18:19;;;;;;;14.10;9.70;;;;;;;;;;5060920;28;20207;-87
2022/11/17 02:21:50;;;;;;;10.70;8.83;;;;;;;;;;5061969;28;20179;-87
2022/11/17 02:25:17;;;;;;;11.37;9.43;;;;;;;;;;5051265;28;20176;-87
2022/11/17 02:28:28;;;;;;;11.40;9.00;;;;;;;;;;5040033;28;20215;-87
2022/11/17 02:32:09;;;;;;;10.57;9.07;;;;;;;;;;5040873;28;20176;-87
2022/11/17 02:35:25;;;;;;;11.23;9.00;;;;;;;;;;5074674;28;20180;-88
2022/11/17 02:38:48;;;;;;;11.33;8.77;;;;;;;;;;5050987;28;20211;-88
2022/11/17 02:42:02;;;;;;;9.97;8.83;;;;;;;;;;5052179;28;20212;-88
2022/11/17 02:45:12;;;;;;;11.03;8.80;;;;;;;;;;5040190;28;20187;-89
2022/11/17 02:48:33;;;;;;;10.07;8.87;;;;;;;;;;5031064;28;20224;-87
2022/11/17 02:51:39;;;;;;;12.37;9.10;;;;;;;;;;5020045;28;20184;-87
2022/11/17 02:54:43;;;;;;;10.20;8.30;;;;;;;;;;5031392;28;20181;-88
2022/11/17 02:57:48;;;;;;;11.17;8.30;;;;;;;;;;5031439;28;20571;-88
2022/11/17 03:01:29;;;;;;;12.00;8.77;;;;;;;;;;5031198;28;20176;-87
2022/11/17 03:04:55;;;;;;;10.70;8.80;;;;;;;;;;5051515;28;20176;-87
2022/11/17 03:08:30;;;;;;;11.73;8.90;;;;;;;;;;5057538;28;20568;-87
2022/11/17 03:11:48;;;;;;;11.83;8.50;;;;;;;;;;5044873;28;20524;-87
2022/11/17 03:15:13;;;;;;;10.60;8.63;;;;;;;;;;5045134;28;20180;-87
2022/11/17 03:18:28;;;;;;;9.77;8.20;;;;;;;;;;5057095;28;20557;-87
2022/11/17 03:21:52;;;;;;;12.60;9.23;;;;;;;;;;5047852;28;20183;-87
2022/11/17 03:25:01;;;;;;;10.73;9.00;;;;;;;;;;5060668;28;20176;-87
2022/11/17 03:28:08;;;;;;;10.53;8.53;;;;;;;;;;5049851;28;20219;-87
2022/11/17 03:31:14;;;;;;;11.70;8.70;;;;;;;;;;5064813;28;20175;-88
2022/11/17 03:34:22;;;;;;;10.83;8.93;;;;;;;;;;5052429;28;20626;-87
2022/11/17 03:37:30;;;;;;;10.70;8.50;;;;;;;;;;5062706;28;20180;-87
2022/11/17 03:40:39;;;;;;;10.87;8.80;;;;;;;;;;5042057;28;20539;-87
2022/11/17 03:43:44;;;;;;;9.47;8.43;;;;;;;;;;5030054;28;20203;-87
2022/11/17 03:46:53;;;;;;;10.83;8.50;;;;;;;;;;5041128;28;20658;-88
2022/11/17 03:50:04;;;;;;;12.87;10.03;;;;;;;;;;5052084;28;20176;-87
2022/11/17 03:53:09;;;;;;;14.10;10.40;;;;;;;;;;5028408;28;20177;-87
2022/11/17 03:56:20;;;;;;;13.57;10.33;;;;;;;;;;5027897;28;20176;-88
2022/11/17 03:59:50;;;;;;;12.93;10.13;;;;;;;;;;5027570;28;20215;-88
2022/11/17 04:02:57;;;;;;;16.40;9.53;;;;;;;;;;5038395;28;20204;-89
2022/11/17 04:06:01;;;;;;;14.70;10.37;;;;;;;;;;5026914;28;20181;-88
2022/11/17 04:09:05;;;;;;;12.23;9.47;;;;;;;;;;5038816;28;20558;-88
2022/11/17 04:18:55;;;;;;;11.93;9.33;;;;;;;;;;5037196;28;20555;-88
2022/11/17 04:22:00;;;;;;;12.10;9.57;;;;;;;;;;5026365;28;20184;-88
2022/11/17 04:25:04;;;;;;;13.00;10.57;;;;;;;;;;5045399;28;20668;-88
2022/11/17 04:31:31;;;;;;;12.53;10.50;;;;;;;;;;5056960;28;20179;-88
2022/11/17 04:34:37;;;;;;;14.10;10.43;;;;;;;;;;5056963;28;20175;-88
2022/11/17 04:37:41;;;;;;;14.90;11.30;;;;;;;;;;5046139;28;20554;-88
2022/11/17 04:44:10;;;;;;;14.63;11.40;;;;;;;;;;5065483;28;20211;-87
2022/11/17 04:47:14;;;;;;;13.80;10.70;;;;;;;;;;5054189;28;20183;-87
2022/11/17 04:50:18;;;;;;;13.07;10.30;;;;;;;;;;5065145;28;20175;-87
2022/11/17 04:53:22;;;;;;;13.40;10.83;;;;;;;;;;5053625;28;20175;-88
2022/11/17 04:56:28;;;;;;;14.00;10.07;;;;;;;;;;5042050;28;20176;-88
2022/11/17 04:59:32;;;;;;;14.17;11.50;;;;;;;;;;5053755;28;20602;-88
2022/11/17 05:02:36;;;;;;;14.57;10.90;;;;;;;;;;5053760;28;20542;-88
2022/11/17 05:05:44;;;;;;;13.10;10.70;;;;;;;;;;5053561;28;20670;-88
2022/11/17 05:08:48;;;;;;;13.90;10.40;;;;;;;;;;5043817;28;20234;-88
2022/11/17 05:17:03;;;;;;;13.03;10.23;;;;;;;;;;5053385;28;20512;-87
2022/11/17 05:18:40;;;;;;;15.37;10.60;;;;;;;;;;5052746;28;20219;-88
2022/11/17 05:21:44;;;;;;;13.00;10.23;;;;;;;;;;5041083;28;20200;-88
2022/11/17 05:24:48;;;;;;;12.73;10.13;;;;;;;;;;5051441;28;20215;-88
2022/11/17 05:27:52;;;;;;;12.93;10.27;;;;;;;;;;5056004;28;20227;-89
2022/11/17 05:30:56;;;;;;;12.90;10.87;;;;;;;;;;5052536;28;20195;-89
2022/11/17 05:34:02;;;;;;;14.30;10.43;;;;;;;;;;5041221;28;20180;-89
2022/11/17 05:37:06;;;;;;;14.63;11.40;;;;;;;;;;5040933;28;20634;-89
2022/11/17 05:40:11;;;;;;;14.70;11.20;;;;;;;;;;5040912;28;20203;-89
2022/11/17 05:43:15;;;;;;;16.93;12.80;;;;;;;;;;5052906;28;20207;-88
2022/11/17 05:46:20;;;;;;;15.77;11.83;;;;;;;;;;5064076;28;20646;-88
2022/11/17 05:49:24;;;;;;;13.60;10.57;;;;;;;;;;5052581;28;20211;-89
2022/11/17 05:52:29;;;;;;;16.13;11.17;;;;;;;;;;5050779;28;20176;-88
2022/11/17 05:55:33;;;;;;;13.70;10.73;;;;;;;;;;5043633;28;20559;-89
2022/11/17 05:58:40;;;;;;;13.90;10.70;;;;;;;;;;5044079;28;20219;-89
2022/11/17 06:01:53;;;;;;;16.87;12.17;;;;;;;;;;5052744;28;20176;-87
2022/11/17 06:04:57;;;;;;;16.03;11.50;;;;;;;;;;5052112;28;20586;-86
2022/11/17 06:08:01;;;;;;;16.40;10.93;;;;;;;;;;5042353;28;20219;-86
2022/11/17 06:11:06;;;;;;;16.33;11.90;;;;;;;;;;5053999;28;20180;-87
2022/11/17 06:14:10;;;;;;;14.53;10.63;;;;;;;;;;5053725;28;20175;-86
2022/11/17 06:17:26;;;;;;;15.30;12.00;;;;;;;;;;5052493;28;20195;-86
2022/11/17 06:20:52;;;;;;;13.30;10.03;;;;;;;;;;5064607;28;20180;-86
2022/11/17 06:23:59;;;;;;;14.70;10.90;;;;;;;;;;5048359;28;20710;-86
2022/11/17 06:27:04;;;;;;;13.20;10.50;;;;;;;;;;5054178;28;20544;-88
2022/11/17 06:30:09;;;;;;;11.97;9.63;;;;;;;;;;5062985;28;20191;-86
2022/11/17 06:33:16;;;;;;;13.93;9.27;;;;;;;;;;5063502;28;20180;-86
2022/11/17 06:36:20;;;;;;;12.27;9.27;;;;;;;;;;5051608;28;20191;-88
2022/11/17 06:39:24;;;;;;;10.87;8.93;;;;;;;;;;5051512;28;20211;-88
2022/11/17 06:45:51;;;;;;;9.97;8.23;;;;;;;;;;5062764;28;20172;-88
2022/11/17 06:48:55;;;;;;;10.87;8.67;;;;;;;;;;5063064;28;20223;-87
2022/11/17 06:52:00;;;;;;;12.23;8.50;;;;;;;;;;5063158;28;20176;-86
2022/11/17 06:55:04;;;;;;;9.13;7.90;;;;;;;;;;5063601;28;20534;-87
2022/11/17 06:58:11;;;;;;;10.33;8.43;;;;;;;;;;5051361;28;20223;-86
2022/11/17 07:01:16;;;;;;;13.33;9.33;;;;;;;;;;5075755;28;20183;-87
2022/11/17 07:04:20;;;;;;;11.23;8.77;;;;;;;;;;5039405;28;20207;-87
2022/11/17 07:07:24;;;;;;;10.83;7.37;;;;;;;;;;5039214;28;20191;-87
2022/11/17 07:10:29;;;;;;;9.03;7.27;;;;;;;;;;5039708;28;20179;-87
2022/11/17 07:13:34;;;;;;;11.80;8.70;;;;;;;;;;5039588;28;20167;-86
2022/11/17 07:16:41;;;;;;;11.77;8.77;;;;;;;;;;5050585;28;20196;-86
2022/11/17 07:19:45;;;;;;;13.00;10.17;;;;;;;;;;5050368;28;20626;-87
2022/11/17 07:22:49;;;;;;;14.47;10.70;;;;;;;;;;5061796;28;20183;-86
2022/11/17 07:26:45;;;;;;;13.13;10.27;;;;;;;;;;5050724;28;20168;-87
2022/11/17 07:29:49;;;;;;;10.37;8.57;;;;;;;;;;5039030;28;20180;-86
2022/11/17 07:32:53;;;;;;;11.57;8.83;;;;;;;;;;5050323;28;20179;-87
2022/11/17 07:36:06;;;;;;;10.73;7.40;;;;;;;;;;5039241;28;20175;-88
2022/11/17 07:39:11;;;;;;;9.50;7.00;;;;;;;;;;5038554;28;20706;-89
2022/11/17 07:42:18;;;;;;;13.03;8.47;;;;;;;;;;5039237;28;20539;-88
2022/11/17 07:45:30;;;;;;;9.90;7.90;;;;;;;;;;5036834;28;20207;-88
2022/11/17 07:48:34;;;;;;;9.07;7.20;;;;;;;;;;5045854;28;20220;-88
2022/11/17 07:51:38;;;;;;;8.80;7.10;;;;;;;;;;5030294;28;20625;-88
2022/11/17 07:54:42;;;;;;;10.07;8.00;;;;;;;;;;5038479;28;20199;-88
2022/11/17 07:57:46;;;;;;;25.13;17.37;;;;;;;;;;5049047;28;20214;-88
2022/11/17 08:00:50;;;;;;;11.33;10.03;;;;;;;;;;5038524;28;20637;-88
2022/11/17 08:03:55;;;;;;;10.60;7.67;;;;;;;;;;5061167;28;20694;-88
2022/11/17 08:06:59;;;;;;;10.77;7.97;;;;;;;;;;5050261;28;20531;-88
2022/11/17 08:10:04;;;;;;;9.27;7.67;;;;;;;;;;5038699;28;20176;-87
2022/11/17 08:13:08;;;;;;;8.80;7.60;;;;;;;;;;5049902;28;20199;-88
2022/11/17 08:16:13;;;;;;;10.00;8.10;;;;;;;;;;5032774;28;20176;-88
2022/11/17 08:19:17;;;;;;;8.20;7.30;;;;;;;;;;5044811;28;20216;-88
2022/11/17 08:22:21;;;;;;;13.40;6.90;;;;;;;;;;5049692;28;20192;-85
2022/11/17 08:25:26;;;;;;;7.60;6.73;;;;;;;;;;5023923;28;20203;-88
2022/11/17 08:28:30;;;;;;;10.17;7.03;;;;;;;;;;5048885;28;20215;-88
2022/11/17 08:31:34;;;;;;;9.43;7.23;;;;;;;;;;5045663;28;20203;-88
2022/11/17 08:34:38;;;;;;;7.77;6.47;;;;;;;;;;5042679;28;20180;-88
2022/11/17 08:37:42;;;;;;;7.67;6.40;;;;;;;;;;5046076;28;20227;-88
2022/11/17 08:40:47;;;;;;;7.90;5.80;;;;;;;;;;5062097;28;20665;-87
2022/11/17 08:43:51;;;;;;;7.53;5.83;;;;;;;;;;5064397;28;20203;-88
2022/11/17 08:46:55;;;;;;;7.43;5.60;;;;;;;;;;5038156;28;20199;-87
2022/11/17 08:49:59;;;;;;;6.23;5.20;;;;;;;;;;5040109;28;20183;-86
2022/11/17 08:53:03;;;;;;;7.50;5.60;;;;;;;;;;5047656;28;20191;-85
2022/11/17 08:56:11;;;;;;;8.20;5.70;;;;;;;;;;5042144;28;20175;-84
2022/11/17 08:59:15;;;;;;;6.33;5.20;;;;;;;;;;5046050;28;20219;-85
2022/11/17 09:02:19;;;;;;;6.63;5.10;;;;;;;;;;5043603;28;20191;-88
2022/11/17 09:05:23;;;;;;;6.63;5.23;;;;;;;;;;5033200;28;20211;-86
2022/11/17 09:08:27;;;;;;;5.30;4.80;;;;;;;;;;5027018;28;20232;-87
2022/11/17 09:11:31;;;;;;;5.00;4.47;;;;;;;;;;5050401;28;20203;-89
2022/11/17 09:14:36;;;;;;;6.17;4.47;;;;;;;;;;5038308;28;20183;-88
2022/11/17 09:17:42;;;;;;;5.40;3.90;;;;;;;;;;5032654;28;20219;-90
2022/11/17 09:20:46;;;;;;;6.73;4.47;;;;;;;;;;5032742;28;20188;-89
2022/11/17 09:23:52;;;;;;;4.93;4.43;;;;;;;;;;5021612;28;20180;-89
2022/11/17 09:26:56;;;;;;;4.90;4.43;;;;;;;;;;5046087;28;20199;-89
2022/11/17 09:30:00;;;;;;;6.70;4.57;;;;;;;;;;5051755;28;20658;-88
2022/11/17 09:33:04;;;;;;;6.50;4.87;;;;;;;;;;5032450;28;20195;-89
2022/11/17 09:36:09;;;;;;;7.93;4.67;;;;;;;;;;5032586;28;20172;-89
2022/11/17 09:39:14;;;;;;;5.60;4.33;;;;;;;;;;5036971;28;20215;-88
2022/11/17 09:42:21;;;;;;;5.70;4.60;;;;;;;;;;5041116;28;20183;-88
2022/11/17 09:45:36;;;;;;;4.60;4.13;;;;;;;;;;5039128;28;20203;-89
2022/11/17 09:48:47;;;;;;;4.20;3.80;;;;;;;;;;5043507;28;20598;-89
2022/11/17 09:51:55;;;;;;;5.23;4.20;;;;;;;;;;5025719;28;20198;-89
2022/11/17 09:55:08;;;;;;;3.67;2.90;;;;;;;;;;5022828;28;20188;-89
2022/11/17 09:58:36;;;;;;;3.30;3.00;;;;;;;;;;5061710;28;20219;-89
2022/11/17 10:01:40;;;;;;;3.97;3.30;;;;;;;;;;5062862;28;20175;-89
2022/11/17 10:04:45;;;;;;;4.47;3.80;;;;;;;;;;5052568;28;20200;-89
2022/11/17 10:07:52;;;;;;;4.37;3.17;;;;;;;;;;5040718;28;20222;-89
2022/11/17 10:10:56;;;;;;;3.97;3.00;;;;;;;;;;5062885;28;20175;-89
2022/11/17 10:14:20;;;;;;;4.23;2.70;;;;;;;;;;5039764;28;20207;-89
2022/11/17 10:17:24;;;;;;;3.03;2.73;;;;;;;;;;5051174;28;20179;-89
2022/11/17 10:20:29;;;;;;;4.07;3.40;;;;;;;;;;5051094;28;20542;-89
2022/11/17 10:23:37;;;;;;;4.80;3.17;;;;;;;;;;5053327;28;20179;-90
2022/11/17 10:26:47;;;;;;;4.80;3.17;;;;;;;;;;5060009;28;20558;-90
2022/11/17 10:30:13;;;;;;;3.73;3.37;;;;;;;;;;5044083;28;20188;-88
2022/11/17 10:33:17;;;;;;;4.77;3.77;;;;;;;;;;5044777;28;20192;-89
2022/11/17 10:36:28;;;;;;;3.63;3.00;;;;;;;;;;5046491;28;20639;-90
2022/11/17 10:39:37;;;;;;;3.93;3.30;;;;;;;;;;5051051;28;20223;-87
2022/11/17 10:42:52;;;;;;;4.20;3.13;;;;;;;;;;5039382;28;20176;-88
2022/11/17 10:46:02;;;;;;;5.20;3.30;;;;;;;;;;5040375;28;20208;-88
2022/11/17 10:49:22;;;;;;;9.87;4.00;;;;;;;;;;5062105;28;20219;-87
2022/11/17 10:52:27;;;;;;;10.10;8.83;;;;;;;;;;5038234;28;20180;-86
2022/11/17 10:55:35;;;;;;;6.30;5.10;;;;;;;;;;5038092;28;20168;-86
2022/11/17 10:59:08;;;;;;;7.53;4.23;;;;;;;;;;5041795;28;20577;-86
2022/11/17 11:02:34;;;;;;;6.30;4.20;;;;;;;;;;5035885;28;20184;-88
2022/11/17 11:05:53;;;;;;;16.97;9.00;;;;;;;;;;5054687;28;20204;-89
2022/11/17 11:09:21;;;;;;;4.13;3.73;;;;;;;;;;5035918;28;20231;-88
2022/11/17 11:12:35;;;;;;;7.27;3.97;;;;;;;;;;5043470;28;20191;-87
2022/11/17 11:15:39;;;;;;;4.67;3.30;;;;;;;;;;5040392;28;20554;-88
2022/11/17 11:18:44;;;;;;;4.00;3.37;;;;;;;;;;5040907;28;20223;-88
2022/11/17 11:22:19;;;;;;;3.57;2.80;;;;;;;;;;5034846;28;20207;-87
2022/11/17 11:25:39;;;;;;;4.87;2.30;;;;;;;;;;5038221;28;20208;-87
2022/11/17 11:28:52;;;;;;;5.40;2.20;;;;;;;;;;5034280;28;20220;-86
2022/11/17 11:32:02;;;;;;;3.13;1.90;;;;;;;;;;5058540;28;20203;-86
2022/11/17 11:35:35;;;;;;;3.00;1.97;;;;;;;;;;5027179;28;20181;-86
2022/11/17 11:39:04;;;;;;;2.77;1.73;;;;;;;;;;5039269;28;20220;-88
2022/11/17 11:42:31;;;;;;;5.67;1.67;;;;;;;;;;5064090;28;20519;-85
2022/11/17 11:45:49;;;;;;;1.70;1.40;;;;;;;;;;5039919;28;20199;-86
2022/11/17 11:49:03;;;;;;;3.13;1.37;;;;;;;;;;5052431;28;20219;-88
2022/11/17 11:52:14;;;;;;;2.50;1.60;;;;;;;;;;5043533;28;20622;-88
2022/11/17 11:55:34;;;;;;;2.30;1.60;;;;;;;;;;5055464;28;20179;-87
2022/11/17 11:59:02;;;;;;;3.53;2.00;;;;;;;;;;5043353;28;20215;-88
2022/11/17 12:02:16;;;;;;;2.50;2.10;;;;;;;;;;5043696;28;20179;-88
2022/11/17 12:05:36;;;;;;;4.07;2.20;;;;;;;;;;5054654;28;20215;-87
2022/11/17 12:08:48;;;;;;;2.53;2.10;;;;;;;;;;5054384;28;20223;-87
2022/11/17 12:12:02;;;;;;;6.30;2.37;;;;;;;;;;5043798;28;20618;-88
2022/11/17 12:15:16;;;;;;;1.70;1.40;;;;;;;;;;5054111;28;20168;-87
2022/11/17 12:18:20;;;;;;;2.27;1.50;;;;;;;;;;5042773;28;20207;-87
2022/11/17 12:21:26;;;;;;;2.80;1.40;;;;;;;;;;5053678;28;20175;-87
2022/11/17 12:24:38;;;;;;;1.57;0.90;;;;;;;;;;5046480;28;20196;-88
2022/11/17 12:27:51;;;;;;;3.30;1.40;;;;;;;;;;5065120;28;20223;-87
2022/11/17 12:31:15;;;;;;;2.77;1.20;;;;;;;;;;5033652;28;20666;-87
2022/11/17 12:34:25;;;;;;;2.87;1.20;;;;;;;;;;5053696;28;20181;-87
2022/11/17 12:37:29;;;;;;;1.90;1.20;;;;;;;;;;5042298;28;20215;-87
2022/11/17 12:40:36;;;;;;;3.03;1.10;;;;;;;;;;5042097;28;20179;-87
2022/11/17 12:43:41;;;;;;;1.93;1.13;;;;;;;;;;5053499;28;20242;-87
2022/11/17 12:46:46;;;;;;;2.47;1.83;;;;;;;;;;5052030;28;20278;-87
2022/11/17 12:50:15;;;;;;;7.33;1.40;;;;;;;;;;5045453;28;20180;-87
2022/11/17 12:53:36;;;;;;;2.63;1.03;;;;;;;;;;5022411;28;20184;-87
2022/11/17 12:57:16;;;;;;;1.83;1.20;;;;;;;;;;5044976;28;20180;-88
2022/11/17 13:00:22;;;;;;;3.00;1.30;;;;;;;;;;5015758;28;20196;-87
2022/11/17 13:03:46;;;;;;;3.83;1.10;;;;;;;;;;5021866;28;20180;-87
2022/11/17 13:07:04;;;;;;;3.13;1.00;;;;;;;;;;5033591;28;20204;-88
2022/11/17 13:10:29;;;;;;;3.10;1.30;;;;;;;;;;5023352;28;20188;-87
2022/11/17 13:13:33;;;;;;;3.33;1.50;;;;;;;;;;5045442;28;20525;-87
2022/11/17 13:16:50;;;;;;;2.80;1.27;;;;;;;;;;5022131;28;20565;-87
2022/11/17 13:20:03;;;;;;;2.73;1.30;;;;;;;;;;5022055;28;20180;-89
2022/11/17 13:23:24;;;;;;;2.50;1.47;;;;;;;;;;5038335;28;20199;-87
2022/11/17 13:26:34;;;;;;;3.07;1.10;;;;;;;;;;5044386;28;20242;-87
2022/11/17 13:29:39;;;;;;;4.10;1.40;;;;;;;;;;5048478;28;20196;-87
2022/11/17 13:32:43;;;;;;;1.23;0.70;;;;;;;;;;5038101;28;20192;-87
2022/11/17 13:35:47;;;;;;;5.47;0.70;;;;;;;;;;5025463;28;20546;-86
2022/11/17 13:38:59;;;;;;;2.83;0.93;;;;;;;;;;5053416;28;20214;-86
2022/11/17 13:42:03;;;;;;;5.57;1.03;;;;;;;;;;5054313;28;20179;-86
2022/11/17 13:45:13;;;;;;;2.90;0.80;;;;;;;;;;5053528;28;20183;-88
2022/11/17 13:48:34;;;;;;;2.43;0.70;;;;;;;;;;5052851;28;20219;-89
2022/11/17 13:51:38;;;;;;;1.23;0.70;;;;;;;;;;5032489;28;20631;-89
2022/11/17 13:54:43;;;;;;;4.50;1.60;;;;;;;;;;5032970;28;20176;-88
2022/11/17 13:58:05;;;;;;;5.57;1.03;;;;;;;;;;5043838;28;20215;-89
2022/11/17 14:01:12;;;;;;;4.17;0.70;;;;;;;;;;5032413;28;20639;-89
2022/11/17 14:04:22;;;;;;;5.23;1.23;;;;;;;;;;5032537;28;20176;-89
2022/11/17 14:07:35;;;;;;;4.00;1.07;;;;;;;;;;5020504;28;20224;-89
2022/11/17 14:10:39;;;;;;;4.30;1.00;;;;;;;;;;5032009;28;20180;-89
2022/11/17 14:13:44;;;;;;;2.30;0.80;;;;;;;;;;5027015;28;20207;-89
2022/11/17 14:16:48;;;;;;;3.13;1.03;;;;;;;;;;5051749;28;20171;-89
2022/11/17 14:19:52;;;;;;;4.67;1.33;;;;;;;;;;5062505;28;20179;-88
2022/11/17 14:23:02;;;;;;;7.43;1.20;;;;;;;;;;5050143;28;20199;-88
2022/11/17 14:26:22;;;;;;;4.70;0.83;;;;;;;;;;5020907;28;20204;-88
2022/11/17 14:29:29;;;;;;;4.40;0.93;;;;;;;;;;5042827;28;20223;-87
2022/11/17 14:32:33;;;;;;;3.33;0.83;;;;;;;;;;5057597;28;20191;-88
2022/11/17 14:35:38;;;;;;;5.63;1.17;;;;;;;;;;5058634;28;20203;-87
2022/11/17 14:38:44;;;;;;;3.33;0.90;;;;;;;;;;5042364;28;20208;-89
2022/11/17 14:41:49;;;;;;;2.93;0.90;;;;;;;;;;5039675;28;20195;-88
2022/11/17 14:44:54;;;;;;;4.03;0.90;;;;;;;;;;5062369;28;20171;-88
2022/11/17 14:47:58;;;;;;;2.00;0.80;;;;;;;;;;5039732;28;20215;-88
2022/11/17 14:51:02;;;;;;;5.37;0.90;;;;;;;;;;5062188;28;20175;-88
2022/11/17 14:54:06;;;;;;;4.20;0.90;;;;;;;;;;5062126;28;20532;-88
2022/11/17 14:57:10;;;;;;;5.23;0.93;;;;;;;;;;5039621;28;20622;-87
2022/11/17 15:00:16;;;;;;;1.73;0.60;;;;;;;;;;5039342;28;20183;-88
2022/11/17 15:03:20;;;;;;;2.93;0.80;;;;;;;;;;5039378;28;20176;-88
2022/11/17 15:06:25;;;;;;;6.53;0.93;;;;;;;;;;5051035;28;20199;-88
2022/11/17 15:09:29;;;;;;;4.10;0.80;;;;;;;;;;5050452;28;20230;-88
2022/11/17 15:12:33;;;;;;;3.83;0.97;;;;;;;;;;5039160;28;20179;-87
2022/11/17 15:15:38;;;;;;;2.63;0.80;;;;;;;;;;5038857;28;20198;-88
2022/11/17 15:18:49;;;;;;;1.87;0.73;;;;;;;;;;5039125;28;20219;-88
2022/11/17 15:21:53;;;;;;;3.10;0.90;;;;;;;;;;5019651;28;20184;-87
2022/11/17 15:24:58;;;;;;;3.37;1.10;;;;;;;;;;5029769;28;20192;-88
2022/11/17 15:28:02;;;;;;;4.37;0.90;;;;;;;;;;5019506;28;20209;-88
2022/11/17 15:31:17;;;;;;;2.07;0.83;;;;;;;;;;5036891;28;20211;-87
2022/11/17 15:34:21;;;;;;;4.30;0.80;;;;;;;;;;5061728;28;20179;-87
2022/11/17 15:37:26;;;;;;;3.63;0.90;;;;;;;;;;5049783;28;20202;-87
2022/11/17 15:40:30;;;;;;;6.27;1.20;;;;;;;;;;5038704;28;20183;-88
2022/11/17 15:43:36;;;;;;;4.07;1.03;;;;;;;;;;5039205;28;20179;-88
2022/11/17 15:46:40;;;;;;;6.27;0.70;;;;;;;;;;5024082;28;20235;-88
2022/11/17 15:49:45;;;;;;;2.37;1.07;;;;;;;;;;5019468;28;20180;-87
2022/11/17 15:52:49;;;;;;;2.73;0.80;;;;;;;;;;5036030;28;20199;-90
2022/11/17 15:55:53;;;;;;;2.20;0.80;;;;;;;;;;5041266;28;20204;-87
2022/11/17 15:59:03;;;;;;;3.50;0.90;;;;;;;;;;5041033;28;20649;-87
2022/11/17 16:02:08;;;;;;;2.17;1.07;;;;;;;;;;5018272;28;20180;-87
2022/11/17 16:05:12;;;;;;;2.37;0.83;;;;;;;;;;5029907;28;20184;-88
2022/11/17 16:08:16;;;;;;;2.93;0.80;;;;;;;;;;5040891;28;20215;-87
2022/11/17 16:11:20;;;;;;;4.33;1.40;;;;;;;;;;5030083;28;20200;-87
2022/11/17 16:14:25;;;;;;;3.03;0.90;;;;;;;;;;5039551;28;20196;-88
2022/11/17 16:17:29;;;;;;;6.13;1.20;;;;;;;;;;5020561;28;20183;-89
2022/11/17 16:20:33;;;;;;;3.87;1.17;;;;;;;;;;5037765;28;20176;-89
2022/11/17 16:23:42;;;;;;;4.77;1.33;;;;;;;;;;5051317;28;20180;-89
2022/11/17 16:26:46;;;;;;;2.43;1.00;;;;;;;;;;5034321;28;20211;-89
2022/11/17 16:29:50;;;;;;;3.73;1.00;;;;;;;;;;5018082;28;20183;-89
2022/11/17 16:32:54;;;;;;;7.20;1.37;;;;;;;;;;5040819;28;20288;-90
2022/11/17 16:36:05;;;;;;;4.00;1.27;;;;;;;;;;5030716;28;20184;-89
2022/11/17 16:39:13;;;;;;;3.03;1.10;;;;;;;;;;5033085;28;20322;-90
2022/11/17 16:42:17;;;;;;;4.83;1.50;;;;;;;;;;5032645;28;20655;-90
2022/11/17 16:45:21;;;;;;;4.00;1.20;;;;;;;;;;5032953;28;20651;-90
2022/11/17 16:48:25;;;;;;;3.60;1.00;;;;;;;;;;5021441;28;20211;-90
2022/11/17 16:51:30;;;;;;;3.40;0.93;;;;;;;;;;5032499;28;20536;-90
2022/11/17 16:54:34;;;;;;;3.17;1.10;;;;;;;;;;5021695;28;20192;-90
2022/11/17 16:57:38;;;;;;;4.80;1.07;;;;;;;;;;5052594;28;20218;-90
2022/11/17 17:00:42;;;;;;;6.67;1.07;;;;;;;;;;5041113;28;20179;-90
2022/11/17 17:03:46;;;;;;;3.10;1.00;;;;;;;;;;5052684;28;20188;-88
2022/11/17 17:06:50;;;;;;;4.47;1.20;;;;;;;;;;5063682;28;20227;-90
2022/11/17 17:09:54;;;;;;;2.97;1.00;;;;;;;;;;5052458;28;20188;-90
2022/11/17 17:12:59;;;;;;;5.30;1.20;;;;;;;;;;5052202;28;20659;-89
2022/11/17 17:16:05;;;;;;;2.93;0.90;;;;;;;;;;5037171;28;20176;-89
2022/11/17 17:19:10;;;;;;;4.73;1.00;;;;;;;;;;5045480;28;20216;-89
2022/11/17 17:22:14;;;;;;;4.67;1.60;;;;;;;;;;5040636;28;20176;-88
2022/11/17 17:25:19;;;;;;;4.87;1.30;;;;;;;;;;5041230;28;20626;-89
2022/11/17 17:28:23;;;;;;;4.50;1.63;;;;;;;;;;5051971;28;20566;-89
2022/11/17 17:31:36;;;;;;;9.73;1.40;;;;;;;;;;5051869;28;20183;-89
2022/11/17 17:34:40;;;;;;;2.80;1.20;;;;;;;;;;5075678;28;20176;-90
2022/11/17 17:37:44;;;;;;;4.27;1.60;;;;;;;;;;5051751;28;20203;-90
2022/11/17 17:40:48;;;;;;;3.97;1.37;;;;;;;;;;5051957;28;20184;-89
2022/11/17 17:43:57;;;;;;;5.60;2.37;;;;;;;;;;5051844;28;20181;-90
2022/11/17 17:47:01;;;;;;;3.80;2.10;;;;;;;;;;5040132;28;20203;-89
2022/11/17 17:50:06;;;;;;;3.40;2.10;;;;;;;;;;5040259;28;20187;-89
2022/11/17 17:53:10;;;;;;;4.87;2.27;;;;;;;;;;5040130;28;20172;-89
2022/11/17 17:59:17;;;;;;;4.07;2.40;;;;;;;;;;5038565;28;20212;-78
2022/11/17 18:02:21;;;;;;;7.63;2.47;;;;;;;;;;5021170;28;20216;-77
2022/11/17 18:05:27;;;;;;;6.47;2.60;;;;;;;;;;5032246;28;20180;-77
2022/11/17 18:08:35;;;;;;;2.80;1.90;;;;;;;;;;5030260;28;20196;-78
2022/11/17 18:11:48;;;;;;;8.37;2.63;;;;;;;;;;5036225;28;20221;-80
2022/11/17 18:14:52;;;;;;;4.33;2.80;;;;;;;;;;5048802;28;20180;-79
2022/11/17 18:17:57;;;;;;;7.40;3.10;;;;;;;;;;5047321;28;20177;-80
2022/11/17 18:21:03;;;;;;;5.37;3.10;;;;;;;;;;5034803;28;20213;-79
2022/11/17 18:24:09;;;;;;;5.20;3.03;;;;;;;;;;5014448;28;20177;-80
2022/11/17 18:27:13;;;;;;;5.53;2.63;;;;;;;;;;5041663;28;20216;-79
2022/11/17 18:30:18;;;;;;;4.00;2.60;;;;;;;;;;5016276;28;20648;-81
2022/11/17 18:33:22;;;;;;;5.33;2.40;;;;;;;;;;5032093;28;20204;-79
2022/11/17 18:36:27;;;;;;;4.43;2.23;;;;;;;;;;5044326;28;20204;-78
2022/11/17 18:39:32;;;;;;;3.67;2.23;;;;;;;;;;5043548;28;20177;-79
2022/11/17 18:42:37;;;;;;;5.70;3.23;;;;;;;;;;5030666;28;20690;-78
2022/11/17 18:45:41;;;;;;;9.50;4.40;;;;;;;;;;5035381;28;20196;-78
2022/11/17 18:48:47;;;;;;;5.53;3.47;;;;;;;;;;5044044;28;20220;-79
2022/11/17 18:51:51;;;;;;;7.83;3.40;;;;;;;;;;5039776;28;20232;-78
2022/11/17 18:54:56;;;;;;;6.17;3.37;;;;;;;;;;5040773;28;20180;-78
2022/11/17 18:58:00;;;;;;;5.77;3.60;;;;;;;;;;5028040;28;20212;-79
2022/11/17 19:01:08;;;;;;;5.43;3.10;;;;;;;;;;5041904;28;20228;-81
2022/11/17 19:04:13;;;;;;;7.60;2.97;;;;;;;;;;5018288;28;20184;-80
2022/11/17 19:07:17;;;;;;;4.43;3.07;;;;;;;;;;5017863;28;20571;-80
2022/11/17 19:10:22;;;;;;;4.33;2.90;;;;;;;;;;5025156;28;20193;-78
2022/11/17 19:13:32;;;;;;;4.80;2.80;;;;;;;;;;5018899;28;20193;-78